Time;durP1;ratioP1;P1;durP2;ratioP2;P2;SDS_P1;SDS_P2;PMS_P1;PMS_P2;Temp;Humidity;BMP_temperature;BMP_pressure;BME280_temperature;BME280_humidity;BME280_pressure;Samples;Min_cycle;Max_cycle;Signal;HPM_P1;HPM_P2
2022/09/18 00:00:23;;;;;;;;;;;;;;;;;;5046452;28;20234;-60
2022/09/18 00:02:50;;;;;;;;;;;;;;;;;;5046200;28;20383;-60
2022/09/18 00:05:17;;;;;;;;;;;;;;;;;;5046552;28;20015;-60
2022/09/18 00:07:43;;;;;;;;;;;;;;;;;;5046824;28;20372;-60
2022/09/18 00:10:09;;;;;;;;;;;;;;;;;;5046855;28;19963;-60
2022/09/18 00:12:34;;;;;;;;;;;;;;;;;;5046126;28;19917;-60
2022/09/18 00:15:00;;;;;;;;;;;;;;;;;;5046074;28;19909;-60
2022/09/18 00:17:26;;;;;;;;;;;;;;;;;;5045959;28;19908;-60
2022/09/18 00:19:52;;;;;;;;;;;;;;;;;;5045916;28;19915;-60
2022/09/18 00:22:18;;;;;;;;;;;;;;;;;;5046062;28;20440;-60
2022/09/18 00:24:45;;;;;;;;;;;;;;;;;;5027803;28;20473;-60
2022/09/18 00:27:11;;;;;;;;;;;;;;;;;;5046773;28;19908;-60
2022/09/18 00:29:37;;;;;;;;;;;;;;;;;;5046124;28;20310;-60
2022/09/18 00:32:03;;;;;;;;;;;;;;;;;;5045806;28;19917;-60
2022/09/18 00:34:29;;;;;;;;;;;;;;;;;;5045984;28;19916;-60
2022/09/18 00:36:56;;;;;;;;;;;;;;;;;;5045629;28;19904;-60
2022/09/18 00:39:22;;;;;;;;;;;;;;;;;;5045865;28;20015;-60
2022/09/18 00:41:48;;;;;;;;;;;;;;;;;;5046092;28;20004;-60
2022/09/18 00:44:14;;;;;;;;;;;;;;;;;;5046395;28;19909;-60
2022/09/18 00:46:41;;;;;;;;;;;;;;;;;;5046359;28;19911;-60
2022/09/18 00:49:08;;;;;;;;;;;;;;;;;;5044970;28;19999;-60
2022/09/18 00:51:35;;;;;;;;;;;;;;;;;;5045530;28;19955;-60
2022/09/18 00:54:01;;;;;;;;;;;;;;;;;;5045280;28;20395;-60
2022/09/18 00:56:27;;;;;;;;;;;;;;;;;;5045743;28;19905;-60
2022/09/18 00:58:54;;;;;;;;;;;;;;;;;;5045053;28;20644;-60
2022/09/18 01:01:19;;;;;;;;;;;;;;;;;;5045377;28;20392;-60
2022/09/18 01:03:45;;;;;;;;;;;;;;;;;;5044851;28;19909;-60
2022/09/18 01:06:11;;;;;;;;;;;;;;;;;;5046028;28;19916;-60
2022/09/18 01:08:37;;;;;;;;;;;;;;;;;;5045149;28;19904;-60
2022/09/18 01:11:03;;;;;;;;;;;;;;;;;;5045043;28;20047;-60
2022/09/18 01:13:30;;;;;;;;;;;;;;;;;;5045250;28;20140;-61
2022/09/18 01:15:57;;;;;;;;;;;;;;;;;;5045325;28;20304;-60
2022/09/18 01:18:23;;;;;;;;;;;;;;;;;;5044833;28;19916;-60
2022/09/18 01:20:50;;;;;;;;;;;;;;;;;;5044734;28;20362;-60
2022/09/18 01:23:17;;;;;;;;;;;;;;;;;;5045199;28;19912;-60
2022/09/18 01:25:43;;;;;;;;;;;;;;;;;;5045851;28;19962;-60
2022/09/18 01:28:08;;;;;;;;;;;;;;;;;;5044439;28;19979;-60
2022/09/18 01:30:34;;;;;;;;;;;;;;;;;;5045016;28;19931;-60
2022/09/18 01:33:00;;;;;;;;;;;;;;;;;;5044648;28;19912;-60
2022/09/18 01:35:29;;;;;;;;;;;;;;;;;;5043344;28;19915;-60
2022/09/18 01:37:55;;;;;;;;;;;;;;;;;;5045157;28;20403;-60
2022/09/18 01:40:21;;;;;;;;;;;;;;;;;;5045018;28;19958;-60
2022/09/18 01:42:47;;;;;;;;;;;;;;;;;;5026423;28;19943;-60
2022/09/18 01:45:13;;;;;;;;;;;;;;;;;;5044401;28;20407;-60
2022/09/18 01:47:38;;;;;;;;;;;;;;;;;;5043851;28;20445;-60
2022/09/18 01:50:04;;;;;;;;;;;;;;;;;;5044015;28;19947;-60
2022/09/18 01:52:30;;;;;;;;;;;;;;;;;;5044200;28;20368;-60
2022/09/18 01:54:57;;;;;;;;;;;;;;;;;;5043789;28;19915;-60
2022/09/18 01:57:22;;;;;;;;;;;;;;;;;;5043992;28;19911;-61
2022/09/18 01:59:49;;;;;;;;;;;;;;;;;;5044482;28;20299;-60
2022/09/18 02:02:15;;;;;;;;;;;;;;;;;;5043789;28;19908;-60
2022/09/18 02:04:41;;;;;;;;;;;;;;;;;;5043811;28;19979;-60
2022/09/18 02:07:07;;;;;;;;;;;;;;;;;;5043760;28;20287;-60
2022/09/18 02:09:34;;;;;;;;;;;;;;;;;;5043843;28;20304;-60
2022/09/18 02:12:00;;;;;;;;;;;;;;;;;;5043752;28;19916;-60
2022/09/18 02:14:26;;;;;;;;;;;;;;;;;;5043704;28;20363;-60
2022/09/18 02:16:52;;;;;;;;;;;;;;;;;;5043883;28;19962;-60
2022/09/18 02:19:17;;;;;;;;;;;;;;;;;;5044268;28;20368;-60
2022/09/18 02:21:43;;;;;;;;;;;;;;;;;;5044121;28;19909;-60
2022/09/18 02:24:09;;;;;;;;;;;;;;;;;;5043873;28;19912;-60
2022/09/18 02:26:36;;;;;;;;;;;;;;;;;;5043814;28;20038;-60
2022/09/18 02:29:02;;;;;;;;;;;;;;;;;;5043373;28;19915;-60
2022/09/18 02:31:28;;;;;;;;;;;;;;;;;;5043439;28;19908;-60
2022/09/18 02:33:55;;;;;;;;;;;;;;;;;;5043481;28;19908;-60
2022/09/18 02:36:22;;;;;;;;;;;;;;;;;;5044423;28;19996;-60
2022/09/18 02:38:48;;;;;;;;;;;;;;;;;;5044099;28;19915;-60
2022/09/18 02:41:15;;;;;;;;;;;;;;;;;;5047080;28;19908;-60
2022/09/18 02:43:42;;;;;;;;;;;;;;;;;;5047329;28;19995;-60
2022/09/18 02:46:08;;;;;;;;;;;;;;;;;;5046607;28;20355;-60
2022/09/18 02:48:35;;;;;;;;;;;;;;;;;;5047194;28;19909;-60
2022/09/18 02:51:01;;;;;;;;;;;;;;;;;;5047481;28;19944;-60
2022/09/18 02:53:28;;;;;;;;;;;;;;;;;;5046897;28;19997;-60
2022/09/18 02:55:54;;;;;;;;;;;;;;;;;;5046956;28;19924;-60
2022/09/18 02:58:20;;;;;;;;;;;;;;;;;;5047500;28;20003;-60
2022/09/18 03:00:47;;;;;;;;;;;;;;;;;;5046383;28;19992;-60
2022/09/18 03:03:14;;;;;;;;;;;;;;;;;;5047301;28;19916;-60
2022/09/18 03:05:40;;;;;;;;;;;;;;;;;;5046790;28;19908;-60
2022/09/18 03:08:06;;;;;;;;;;;;;;;;;;5046718;28;19905;-60
2022/09/18 03:10:32;;;;;;;;;;;;;;;;;;5046960;28;20441;-60
2022/09/18 03:12:58;;;;;;;;;;;;;;;;;;5046690;28;20016;-61
2022/09/18 03:15:23;;;;;;;;;;;;;;;;;;5046409;28;20376;-60
2022/09/18 03:17:50;;;;;;;;;;;;;;;;;;5047090;28;19923;-60
2022/09/18 03:20:16;;;;;;;;;;;;;;;;;;5046884;28;20379;-60
2022/09/18 03:22:43;;;;;;;;;;;;;;;;;;5046938;28;19909;-60
2022/09/18 03:25:09;;;;;;;;;;;;;;;;;;5046733;28;19955;-60
2022/09/18 03:27:35;;;;;;;;;;;;;;;;;;5046407;28;19948;-60
2022/09/18 03:30:01;;;;;;;;;;;;;;;;;;5046545;28;20781;-60
2022/09/18 03:32:28;;;;;;;;;;;;;;;;;;5045472;28;19913;-60
2022/09/18 03:34:54;;;;;;;;;;;;;;;;;;5047226;28;19950;-61
2022/09/18 03:37:20;;;;;;;;;;;;;;;;;;5046794;28;19916;-60
2022/09/18 03:39:47;;;;;;;;;;;;;;;;;;5046110;28;19912;-60
2022/09/18 03:42:13;;;;;;;;;;;;;;;;;;5046090;28;19931;-60
2022/09/18 03:44:39;;;;;;;;;;;;;;;;;;5046415;28;20471;-61
2022/09/18 03:47:08;;;;;;;;;;;;;;;;;;5046424;28;19995;-61
2022/09/18 03:49:35;;;;;;;;;;;;;;;;;;5046749;28;19908;-60
2022/09/18 03:52:01;;;;;;;;;;;;;;;;;;5045349;28;19908;-60
2022/09/18 03:54:28;;;;;;;;;;;;;;;;;;5046128;28;19908;-61
2022/09/18 03:56:54;;;;;;;;;;;;;;;;;;5045584;28;20022;-61
2022/09/18 03:59:19;;;;;;;;;;;;;;;;;;5045779;28;20008;-61
2022/09/18 04:01:46;;;;;;;;;;;;;;;;;;5045324;28;19909;-61
2022/09/18 04:04:12;;;;;;;;;;;;;;;;;;5045813;28;20376;-61
2022/09/18 04:06:38;;;;;;;;;;;;;;;;;;5045865;28;20350;-61
2022/09/18 04:09:04;;;;;;;;;;;;;;;;;;5046440;28;19909;-60
2022/09/18 04:11:30;;;;;;;;;;;;;;;;;;5045794;28;19939;-60
2022/09/18 04:13:56;;;;;;;;;;;;;;;;;;5045479;28;20332;-61
2022/09/18 04:16:22;;;;;;;;;;;;;;;;;;5045468;28;19908;-61
2022/09/18 04:18:48;;;;;;;;;;;;;;;;;;5045177;28;19905;-60
2022/09/18 04:21:14;;;;;;;;;;;;;;;;;;5045454;28;19912;-61
2022/09/18 04:23:40;;;;;;;;;;;;;;;;;;5045594;28;19944;-60
2022/09/18 04:26:09;;;;;;;;;;;;;;;;;;5045707;28;19955;-60
2022/09/18 04:28:34;;;;;;;;;;;;;;;;;;5028106;28;19967;-61
2022/09/18 04:31:00;;;;;;;;;;;;;;;;;;5044906;28;20391;-61
2022/09/18 04:33:27;;;;;;;;;;;;;;;;;;5045574;28;20447;-61
2022/09/18 04:35:55;;;;;;;;;;;;;;;;;;5045084;28;20368;-60
2022/09/18 04:38:26;;;;;;;;;;;;;;;;;;5045332;28;19911;-61
2022/09/18 04:40:52;;;;;;;;;;;;;;;;;;5044944;28;19912;-61
2022/09/18 04:43:19;;;;;;;;;;;;;;;;;;5045271;28;20299;-61
2022/09/18 04:45:46;;;;;;;;;;;;;;;;;;5044614;28;20398;-61
2022/09/18 04:48:13;;;;;;;;;;;;;;;;;;5045261;28;20446;-61
2022/09/18 04:50:39;;;;;;;;;;;;;;;;;;5045454;28;19901;-61
2022/09/18 04:53:05;;;;;;;;;;;;;;;;;;5045273;28;19904;-61
2022/09/18 04:55:31;;;;;;;;;;;;;;;;;;5044898;28;19904;-61
2022/09/18 04:57:57;;;;;;;;;;;;;;;;;;5044407;28;20317;-61
2022/09/18 05:00:24;;;;;;;;;;;;;;;;;;5044812;28;20380;-61
2022/09/18 05:02:51;;;;;;;;;;;;;;;;;;5043553;28;20003;-61
2022/09/18 05:05:18;;;;;;;;;;;;;;;;;;5026713;28;20167;-61
2022/09/18 05:07:44;;;;;;;;;;;;;;;;;;5044475;28;19927;-61
2022/09/18 05:10:10;;;;;;;;;;;;;;;;;;5044763;28;20356;-61
2022/09/18 05:12:36;;;;;;;;;;;;;;;;;;5045191;28;20414;-61
2022/09/18 05:15:02;;;;;;;;;;;;;;;;;;5044857;28;19912;-61
2022/09/18 05:17:31;;;;;;;;;;;;;;;;;;5044414;28;19908;-61
2022/09/18 05:19:57;;;;;;;;;;;;;;;;;;5044438;28;19913;-60
2022/09/18 05:22:24;;;;;;;;;;;;;;;;;;5044357;28;19909;-61
2022/09/18 05:24:51;;;;;;;;;;;;;;;;;;5044299;28;19904;-61
2022/09/18 05:27:18;;;;;;;;;;;;;;;;;;5044599;28;19905;-61
2022/09/18 05:29:45;;;;;;;;;;;;;;;;;;5044281;28;19905;-61
2022/09/18 05:32:11;;;;;;;;;;;;;;;;;;5044421;28;20281;-60
2022/09/18 05:34:38;;;;;;;;;;;;;;;;;;5045470;28;19905;-60
2022/09/18 05:37:05;;;;;;;;;;;;;;;;;;5043616;28;19908;-60
2022/09/18 05:39:31;;;;;;;;;;;;;;;;;;5044647;28;19917;-60
2022/09/18 05:41:57;;;;;;;;;;;;;;;;;;5027421;28;20328;-60
2022/09/18 05:44:23;;;;;;;;;;;;;;;;;;5027694;28;20003;-60
2022/09/18 05:46:49;;;;;;;;;;;;;;;;;;5044833;28;19908;-60
2022/09/18 05:49:15;;;;;;;;;;;;;;;;;;5047782;28;19991;-60
2022/09/18 05:51:41;;;;;;;;;;;;;;;;;;5048308;28;19908;-60
2022/09/18 05:54:07;;;;;;;;;;;;;;;;;;5047674;28;19952;-60
2022/09/18 05:56:33;;;;;;;;;;;;;;;;;;5045766;28;19950;-60
2022/09/18 05:58:58;;;;;;;;;;;;;;;;;;5045150;28;19920;-61
2022/09/18 06:01:24;;;;;;;;;;;;;;;;;;5046244;28;19935;-60
2022/09/18 06:03:50;;;;;;;;;;;;;;;;;;5045940;28;19905;-60
2022/09/18 06:06:16;;;;;;;;;;;;;;;;;;5046665;28;19908;-60
2022/09/18 06:08:42;;;;;;;;;;;;;;;;;;5045695;28;19979;-61
2022/09/18 06:11:08;;;;;;;;;;;;;;;;;;5045555;28;19909;-60
2022/09/18 06:13:34;;;;;;;;;;;;;;;;;;5045524;28;19912;-60
2022/09/18 06:16:00;;;;;;;;;;;;;;;;;;5048779;28;19904;-60
2022/09/18 06:18:26;;;;;;;;;;;;;;;;;;5049425;28;19909;-60
2022/09/18 06:20:52;;;;;;;;;;;;;;;;;;5048641;28;20015;-60
2022/09/18 06:23:19;;;;;;;;;;;;;;;;;;5049362;28;19909;-60
2022/09/18 06:25:45;;;;;;;;;;;;;;;;;;5048332;28;19946;-60
2022/09/18 06:28:12;;;;;;;;;;;;;;;;;;5047255;28;20320;-60
2022/09/18 06:30:38;;;;;;;;;;;;;;;;;;5048282;28;19986;-60
2022/09/18 06:33:05;;;;;;;;;;;;;;;;;;5047347;28;20112;-60
2022/09/18 06:35:30;;;;;;;;;;;;;;;;;;5047650;28;20037;-60
2022/09/18 06:37:56;;;;;;;;;;;;;;;;;;5029750;28;20482;-60
2022/09/18 06:40:24;;;;;;;;;;;;;;;;;;5047772;28;19999;-61
2022/09/18 06:42:51;;;;;;;;;;;;;;;;;;5047280;28;19909;-61
2022/09/18 06:45:17;;;;;;;;;;;;;;;;;;5047917;28;19947;-61
2022/09/18 06:47:42;;;;;;;;;;;;;;;;;;5047694;28;19952;-61
2022/09/18 06:50:08;;;;;;;;;;;;;;;;;;5048578;28;20003;-61
2022/09/18 06:52:34;;;;;;;;;;;;;;;;;;5048259;28;19912;-61
2022/09/18 06:55:00;;;;;;;;;;;;;;;;;;5048833;28;19904;-61
2022/09/18 06:57:26;;;;;;;;;;;;;;;;;;5047608;28;19996;-61
2022/09/18 06:59:52;;;;;;;;;;;;;;;;;;5048697;28;19948;-60
2022/09/18 07:02:18;;;;;;;;;;;;;;;;;;5049598;28;20382;-61
2022/09/18 07:04:45;;;;;;;;;;;;;;;;;;5048165;28;19927;-61
2022/09/18 07:07:11;;;;;;;;;;;;;;;;;;5047050;28;19905;-61
2022/09/18 07:09:38;;;;;;;;;;;;;;;;;;5047189;28;19927;-61
2022/09/18 07:12:04;;;;;;;;;;;;;;;;;;5046696;28;19963;-61
2022/09/18 07:14:30;;;;;;;;;;;;;;;;;;5046904;28;19945;-61
2022/09/18 07:16:57;;;;;;;;;;;;;;;;;;5046613;28;20399;-60
2022/09/18 07:19:23;;;;;;;;;;;;;;;;;;5046814;28;19909;-61
2022/09/18 07:21:48;;;;;;;;;;;;;;;;;;5047534;28;19916;-61
2022/09/18 07:24:14;;;;;;;;;;;;;;;;;;5047531;28;20024;-61
2022/09/18 07:26:40;;;;;;;;;;;;;;;;;;5045611;28;19909;-61
2022/09/18 07:29:07;;;;;;;;;;;;;;;;;;5046466;28;19990;-60
2022/09/18 07:31:33;;;;;;;;;;;;;;;;;;5046556;28;20364;-60
2022/09/18 07:34:00;;;;;;;;;;;;;;;;;;5046696;28;19905;-61
2022/09/18 07:36:26;;;;;;;;;;;;;;;;;;5028944;28;20505;-60
2022/09/18 07:38:53;;;;;;;;;;;;;;;;;;5047158;28;19905;-61
2022/09/18 07:41:20;;;;;;;;;;;;;;;;;;5047325;28;19917;-61
2022/09/18 07:43:46;;;;;;;;;;;;;;;;;;5047524;28;19905;-61
2022/09/18 07:46:13;;;;;;;;;;;;;;;;;;5047016;28;20462;-60
2022/09/18 07:48:40;;;;;;;;;;;;;;;;;;5047467;28;19916;-61
2022/09/18 07:51:07;;;;;;;;;;;;;;;;;;5046708;28;20044;-60
2022/09/18 07:53:36;;;;;;;;;;;;;;;;;;5047149;28;19905;-61
2022/09/18 07:56:02;;;;;;;;;;;;;;;;;;5046924;28;19987;-60
2022/09/18 07:58:28;;;;;;;;;;;;;;;;;;5046520;28;20004;-61
2022/09/18 08:00:53;;;;;;;;;;;;;;;;;;5046752;28;20210;-60
2022/09/18 08:03:20;;;;;;;;;;;;;;;;;;5046852;28;19919;-61
2022/09/18 08:05:46;;;;;;;;;;;;;;;;;;5047320;28;19930;-61
2022/09/18 08:08:12;;;;;;;;;;;;;;;;;;5048048;28;19904;-61
2022/09/18 08:10:38;;;;;;;;;;;;;;;;;;5047483;28;19905;-61
2022/09/18 08:13:04;;;;;;;;;;;;;;;;;;5046360;28;20007;-63
2022/09/18 08:15:31;;;;;;;;;;;;;;;;;;5043093;28;20007;-60
2022/09/18 08:17:57;;;;;;;;;;;;;;;;;;5019573;28;19911;-61
2022/09/18 08:20:23;;;;;;;;;;;;;;;;;;5044973;28;19913;-60
2022/09/18 08:22:49;;;;;;;;;;;;;;;;;;5049012;28;19908;-61
2022/09/18 08:25:15;;;;;;;;;;;;;;;;;;5045368;28;20387;-61
2022/09/18 08:27:41;;;;;;;;;;;;;;;;;;5029304;28;19960;-61
2022/09/18 08:30:07;;;;;;;;;;;;;;;;;;5040788;28;19913;-61
2022/09/18 08:32:33;;;;;;;;;;;;;;;;;;5047526;28;19916;-60
2022/09/18 08:35:00;;;;;;;;;;;;;;;;;;5046254;28;19932;-61
2022/09/18 08:37:25;;;;;;;;;;;;;;;;;;5047156;28;19908;-61
2022/09/18 08:39:51;;;;;;;;;;;;;;;;;;5046955;28;19923;-61
2022/09/18 08:42:17;;;;;;;;;;;;;;;;;;5048152;28;19904;-61
2022/09/18 08:44:43;;;;;;;;;;;;;;;;;;5029215;28;19927;-61
2022/09/18 08:47:09;;;;;;;;;;;;;;;;;;5047532;28;19913;-61
2022/09/18 08:49:35;;;;;;;;;;;;;;;;;;5046062;28;20390;-60
2022/09/18 08:52:02;;;;;;;;;;;;;;;;;;5047507;28;19912;-61
2022/09/18 08:54:28;;;;;;;;;;;;;;;;;;5029750;28;19909;-61
2022/09/18 08:56:54;;;;;;;;;;;;;;;;;;5046561;28;19905;-61
2022/09/18 08:59:20;;;;;;;;;;;;;;;;;;5047079;28;19915;-61
2022/09/18 09:01:46;;;;;;;;;;;;;;;;;;5029490;28;19931;-60
2022/09/18 09:04:12;;;;;;;;;;;;;;;;;;5047056;28;19955;-61
2022/09/18 09:06:38;;;;;;;;;;;;;;;;;;5047018;28;19950;-61
2022/09/18 09:09:04;;;;;;;;;;;;;;;;;;5046811;28;19909;-61
2022/09/18 09:11:29;;;;;;;;;;;;;;;;;;5046515;28;20022;-61
2022/09/18 09:13:55;;;;;;;;;;;;;;;;;;5047408;28;19920;-61
2022/09/18 09:16:23;;;;;;;;;;;;;;;;;;5045885;28;19947;-61
2022/09/18 09:18:48;;;;;;;;;;;;;;;;;;5046387;28;19908;-61
2022/09/18 09:21:15;;;;;;;;;;;;;;;;;;5044811;28;19983;-61
2022/09/18 09:23:42;;;;;;;;;;;;;;;;;;5045975;28;19955;-61
2022/09/18 09:26:09;;;;;;;;;;;;;;;;;;5044803;28;19912;-61
2022/09/18 09:28:35;;;;;;;;;;;;;;;;;;5022216;28;19991;-61
2022/09/18 09:31:02;;;;;;;;;;;;;;;;;;5044688;28;20066;-61
2022/09/18 09:33:30;;;;;;;;;;;;;;;;;;5046072;28;19905;-61
2022/09/18 09:35:56;;;;;;;;;;;;;;;;;;5044801;28;19905;-61
2022/09/18 09:38:23;;;;;;;;;;;;;;;;;;5046192;28;19905;-61
2022/09/18 09:40:49;;;;;;;;;;;;;;;;;;5041826;28;19944;-60
2022/09/18 09:43:16;;;;;;;;;;;;;;;;;;5047283;28;20402;-60
2022/09/18 09:45:43;;;;;;;;;;;;;;;;;;5026603;28;20331;-60
2022/09/18 09:48:09;;;;;;;;;;;;;;;;;;5046488;28;19912;-60
2022/09/18 09:50:35;;;;;;;;;;;;;;;;;;5047400;28;20304;-61
2022/09/18 09:53:02;;;;;;;;;;;;;;;;;;5050413;28;19916;-60
2022/09/18 09:55:27;;;;;;;;;;;;;;;;;;5047182;28;19961;-60
2022/09/18 09:57:53;;;;;;;;;;;;;;;;;;5049471;28;20000;-60
2022/09/18 10:00:19;;;;;;;;;;;;;;;;;;5049381;28;20349;-61
2022/09/18 10:02:45;;;;;;;;;;;;;;;;;;5050065;28;19950;-60
2022/09/18 10:05:11;;;;;;;;;;;;;;;;;;5049019;28;19919;-60
2022/09/18 10:07:37;;;;;;;;;;;;;;;;;;5049382;28;19947;-60
2022/09/18 10:10:04;;;;;;;;;;;;;;;;;;5048590;28;20382;-60
2022/09/18 10:12:31;;;;;;;;;;;;;;;;;;5049148;28;19999;-60
2022/09/18 10:14:58;;;;;;;;;;;;;;;;;;5048868;28;20707;-60
2022/09/18 10:17:24;;;;;;;;;;;;;;;;;;5048764;28;19905;-60
2022/09/18 10:19:52;;;;;;;;;;;;;;;;;;5048708;28;19931;-60
2022/09/18 10:22:19;;;;;;;;;;;;;;;;;;5049490;28;19905;-60
2022/09/18 10:24:45;;;;;;;;;;;;;;;;;;5049195;28;19904;-60
2022/09/18 10:27:11;;;;;;;;;;;;;;;;;;5049010;28;19995;-60
2022/09/18 10:29:37;;;;;;;;;;;;;;;;;;5048800;28;19992;-60
2022/09/18 10:32:03;;;;;;;;;;;;;;;;;;5048625;28;19913;-60
2022/09/18 10:34:29;;;;;;;;;;;;;;;;;;5048682;28;19963;-60
2022/09/18 10:36:56;;;;;;;;;;;;;;;;;;5048728;28;19936;-60
2022/09/18 10:39:23;;;;;;;;;;;;;;;;;;5030285;28;19919;-60
2022/09/18 10:41:49;;;;;;;;;;;;;;;;;;5048145;28;19909;-60
2022/09/18 10:44:15;;;;;;;;;;;;;;;;;;5049287;28;20291;-60
2022/09/18 10:46:41;;;;;;;;;;;;;;;;;;5048487;28;19913;-60
2022/09/18 10:49:07;;;;;;;;;;;;;;;;;;5048268;28;20534;-60
2022/09/18 10:51:33;;;;;;;;;;;;;;;;;;5048417;28;19916;-60
2022/09/18 10:53:59;;;;;;;;;;;;;;;;;;5048365;28;19936;-60
2022/09/18 10:56:25;;;;;;;;;;;;;;;;;;5030480;28;19936;-60
2022/09/18 10:58:51;;;;;;;;;;;;;;;;;;5047785;28;19908;-60
2022/09/18 11:01:17;;;;;;;;;;;;;;;;;;5047330;28;20475;-60
2022/09/18 11:03:43;;;;;;;;;;;;;;;;;;5048298;28;19909;-60
2022/09/18 11:06:09;;;;;;;;;;;;;;;;;;5047872;28;20384;-60
2022/09/18 11:08:36;;;;;;;;;;;;;;;;;;5030306;28;19911;-60
2022/09/18 11:11:01;;;;;;;;;;;;;;;;;;5047740;28;19909;-61
2022/09/18 11:13:29;;;;;;;;;;;;;;;;;;5047582;28;19913;-60
2022/09/18 11:15:55;;;;;;;;;;;;;;;;;;5047463;28;19905;-60
2022/09/18 11:18:22;;;;;;;;;;;;;;;;;;5047244;28;20437;-60
2022/09/18 11:20:49;;;;;;;;;;;;;;;;;;5047933;28;20413;-62
2022/09/18 11:23:16;;;;;;;;;;;;;;;;;;5048444;28;19912;-61
2022/09/18 11:25:44;;;;;;;;;;;;;;;;;;5048137;28;19905;-66
2022/09/18 11:28:10;;;;;;;;;;;;;;;;;;5048618;28;19911;-63
2022/09/18 11:30:37;;;;;;;;;;;;;;;;;;5046963;28;19913;-63
2022/09/18 11:33:03;;;;;;;;;;;;;;;;;;5048199;28;19905;-63
2022/09/18 11:35:30;;;;;;;;;;;;;;;;;;5047050;28;19913;-64
2022/09/18 11:37:57;;;;;;;;;;;;;;;;;;5045820;28;19916;-63
2022/09/18 11:40:23;;;;;;;;;;;;;;;;;;5045636;28;20379;-63
2022/09/18 11:42:49;;;;;;;;;;;;;;;;;;5046954;28;19962;-63
2022/09/18 11:45:16;;;;;;;;;;;;;;;;;;5028176;28;20537;-63
2022/09/18 11:47:42;;;;;;;;;;;;;;;;;;5044710;28;20477;-64
2022/09/18 11:50:08;;;;;;;;;;;;;;;;;;5045244;28;19944;-63
2022/09/18 11:52:34;;;;;;;;;;;;;;;;;;5027993;28;19948;-58
2022/09/18 11:55:00;;;;;;;;;;;;;;;;;;5027438;28;19955;-58
2022/09/18 11:57:26;;;;;;;;;;;;;;;;;;5044999;28;19916;-58
2022/09/18 11:59:52;;;;;;;;;;;;;;;;;;5044612;28;19927;-58
2022/09/18 12:02:18;;;;;;;;;;;;;;;;;;5044917;28;19991;-57
2022/09/18 12:04:45;;;;;;;;;;;;;;;;;;5045360;28;19909;-56
2022/09/18 12:07:11;;;;;;;;;;;;;;;;;;5044912;28;20369;-58
2022/09/18 12:09:37;;;;;;;;;;;;;;;;;;5044950;28;19908;-55
2022/09/18 12:12:02;;;;;;;;;;;;;;;;;;5026040;28;19924;-58
2022/09/18 12:14:28;;;;;;;;;;;;;;;;;;5044527;28;20319;-58
2022/09/18 12:16:54;;;;;;;;;;;;;;;;;;5045123;28;19908;-55
2022/09/18 12:19:20;;;;;;;;;;;;;;;;;;5027337;28;19947;-58
2022/09/18 12:21:46;;;;;;;;;;;;;;;;;;5044743;28;20383;-63
2022/09/18 12:24:13;;;;;;;;;;;;;;;;;;5044397;28;19920;-63
2022/09/18 12:26:39;;;;;;;;;;;;;;;;;;5026193;28;19920;-62
2022/09/18 12:29:06;;;;;;;;;;;;;;;;;;5043987;28;19909;-62
2022/09/18 12:31:32;;;;;;;;;;;;;;;;;;5043863;28;19916;-63
2022/09/18 12:33:58;;;;;;;;;;;;;;;;;;5044531;28;20144;-63
2022/09/18 12:36:24;;;;;;;;;;;;;;;;;;5027011;28;19908;-63
2022/09/18 12:38:50;;;;;;;;;;;;;;;;;;5025504;28;19915;-62
2022/09/18 12:41:16;;;;;;;;;;;;;;;;;;5044001;28;20145;-63
2022/09/18 12:43:42;;;;;;;;;;;;;;;;;;5026515;28;19916;-63
2022/09/18 12:46:08;;;;;;;;;;;;;;;;;;5044246;28;19951;-63
2022/09/18 12:48:34;;;;;;;;;;;;;;;;;;5043178;28;20005;-63
2022/09/18 12:51:00;;;;;;;;;;;;;;;;;;5025617;28;19908;-63
2022/09/18 12:53:26;;;;;;;;;;;;;;;;;;5044216;28;20320;-63
2022/09/18 12:55:52;;;;;;;;;;;;;;;;;;5044402;28;19912;-62
2022/09/18 12:58:18;;;;;;;;;;;;;;;;;;5043664;28;19909;-63
2022/09/18 13:00:44;;;;;;;;;;;;;;;;;;5043664;28;20024;-63
2022/09/18 13:03:11;;;;;;;;;;;;;;;;;;5043583;28;20030;-64
2022/09/18 13:05:37;;;;;;;;;;;;;;;;;;5044006;28;19915;-63
2022/09/18 13:08:03;;;;;;;;;;;;;;;;;;5043221;28;19913;-62
2022/09/18 13:10:30;;;;;;;;;;;;;;;;;;5043639;28;20277;-62
2022/09/18 13:12:57;;;;;;;;;;;;;;;;;;5025954;28;19924;-62
2022/09/18 13:15:25;;;;;;;;;;;;;;;;;;5044172;28;19912;-62
2022/09/18 13:17:51;;;;;;;;;;;;;;;;;;5044340;28;20202;-62
2022/09/18 13:20:17;;;;;;;;;;;;;;;;;;5044803;28;19912;-60
2022/09/18 13:22:43;;;;;;;;;;;;;;;;;;5043434;28;19927;-60
2022/09/18 13:25:10;;;;;;;;;;;;;;;;;;5042938;28;19970;-60
2022/09/18 13:27:36;;;;;;;;;;;;;;;;;;5043427;28;20353;-60
2022/09/18 13:30:03;;;;;;;;;;;;;;;;;;5044374;28;19912;-60
2022/09/18 13:32:30;;;;;;;;;;;;;;;;;;5042574;28;19955;-60
2022/09/18 13:34:57;;;;;;;;;;;;;;;;;;5044018;28;19909;-61
2022/09/18 13:37:23;;;;;;;;;;;;;;;;;;5043598;28;20316;-61
2022/09/18 13:39:48;;;;;;;;;;;;;;;;;;5043295;28;20158;-61
2022/09/18 13:42:15;;;;;;;;;;;;;;;;;;5026047;28;20376;-60
2022/09/18 13:44:42;;;;;;;;;;;;;;;;;;5043032;28;19939;-60
2022/09/18 13:47:08;;;;;;;;;;;;;;;;;;5044480;28;19913;-60
2022/09/18 13:49:35;;;;;;;;;;;;;;;;;;5044532;28;19908;-60
2022/09/18 13:52:02;;;;;;;;;;;;;;;;;;5043503;28;20039;-59
2022/09/18 13:54:28;;;;;;;;;;;;;;;;;;5044586;28;20511;-59
2022/09/18 13:56:54;;;;;;;;;;;;;;;;;;5044502;28;19954;-59
2022/09/18 13:59:21;;;;;;;;;;;;;;;;;;5044305;28;19916;-60
2022/09/18 14:01:46;;;;;;;;;;;;;;;;;;5038566;28;19912;-59
2022/09/18 14:04:13;;;;;;;;;;;;;;;;;;5043709;28;19909;-59
2022/09/18 14:06:40;;;;;;;;;;;;;;;;;;5044113;28;20063;-59
2022/09/18 14:09:06;;;;;;;;;;;;;;;;;;5044033;28;20303;-59
2022/09/18 14:11:32;;;;;;;;;;;;;;;;;;5039777;28;19917;-59
2022/09/18 14:13:58;;;;;;;;;;;;;;;;;;5040109;28;19912;-59
2022/09/18 14:16:25;;;;;;;;;;;;;;;;;;5045019;28;20042;-59
2022/09/18 14:18:51;;;;;;;;;;;;;;;;;;5042401;28;19955;-59
2022/09/18 14:21:18;;;;;;;;;;;;;;;;;;5026777;28;20029;-59
2022/09/18 14:23:44;;;;;;;;;;;;;;;;;;5044022;28;20038;-59
2022/09/18 14:26:10;;;;;;;;;;;;;;;;;;5044902;28;19909;-59
2022/09/18 14:28:37;;;;;;;;;;;;;;;;;;5027058;28;19905;-59
2022/09/18 14:31:03;;;;;;;;;;;;;;;;;;5045395;28;20577;-59
2022/09/18 14:33:30;;;;;;;;;;;;;;;;;;5040566;28;19909;-59
2022/09/18 14:35:56;;;;;;;;;;;;;;;;;;5047048;28;19904;-59
2022/09/18 14:38:24;;;;;;;;;;;;;;;;;;5045512;28;20415;-59
2022/09/18 14:40:50;;;;;;;;;;;;;;;;;;5047838;28;19909;-59
2022/09/18 14:43:16;;;;;;;;;;;;;;;;;;5047346;28;20371;-59
2022/09/18 14:45:42;;;;;;;;;;;;;;;;;;5048654;28;19905;-59
2022/09/18 14:48:09;;;;;;;;;;;;;;;;;;5052467;28;19908;-59
2022/09/18 14:50:36;;;;;;;;;;;;;;;;;;5063992;28;19904;-59
2022/09/18 14:53:03;;;;;;;;;;;;;;;;;;5046660;28;19904;-59
2022/09/18 14:55:29;;;;;;;;;;;;;;;;;;5066044;28;19931;-59
2022/09/18 14:57:55;;;;;;;;;;;;;;;;;;5047631;28;19912;-59
2022/09/18 15:00:22;;;;;;;;;;;;;;;;;;5047507;28;19909;-59
2022/09/18 15:02:49;;;;;;;;;;;;;;;;;;5046894;28;20017;-59
2022/09/18 15:05:16;;;;;;;;;;;;;;;;;;5061831;28;19908;-59
2022/09/18 15:07:44;;;;;;;;;;;;;;;;;;5047136;28;19916;-59
2022/09/18 15:10:11;;;;;;;;;;;;;;;;;;5049117;28;19944;-59
2022/09/18 15:12:38;;;;;;;;;;;;;;;;;;5044208;28;19922;-59
2022/09/18 15:15:05;;;;;;;;;;;;;;;;;;5048519;28;20305;-59
2022/09/18 15:17:32;;;;;;;;;;;;;;;;;;5046981;28;20858;-59
2022/09/18 15:19:58;;;;;;;;;;;;;;;;;;5046802;28;19924;-59
2022/09/18 15:22:25;;;;;;;;;;;;;;;;;;5045832;28;19908;-59
2022/09/18 15:24:52;;;;;;;;;;;;;;;;;;5047351;28;20375;-59
2022/09/18 15:27:18;;;;;;;;;;;;;;;;;;5043209;28;19912;-59
2022/09/18 15:29:44;;;;;;;;;;;;;;;;;;5048423;28;20295;-59
2022/09/18 15:32:09;;;;;;;;;;;;;;;;;;5045693;28;19905;-59
2022/09/18 15:34:36;;;;;;;;;;;;;;;;;;5048619;28;20062;-59
2022/09/18 15:37:02;;;;;;;;;;;;;;;;;;5046908;28;19904;-59
2022/09/18 15:39:28;;;;;;;;;;;;;;;;;;5047793;28;19931;-59
2022/09/18 15:41:54;;;;;;;;;;;;;;;;;;5046899;28;19912;-59
2022/09/18 15:44:20;;;;;;;;;;;;;;;;;;5047420;28;19912;-59
2022/09/18 15:46:47;;;;;;;;;;;;;;;;;;5046274;28;20303;-58
2022/09/18 15:49:13;;;;;;;;;;;;;;;;;;5047510;28;20059;-59
2022/09/18 15:51:40;;;;;;;;;;;;;;;;;;5047048;28;19909;-59
2022/09/18 15:54:09;;;;;;;;;;;;;;;;;;5046138;28;20395;-59
2022/09/18 15:56:36;;;;;;;;;;;;;;;;;;5043256;28;19905;-59
2022/09/18 15:59:02;;;;;;;;;;;;;;;;;;5046903;28;19908;-59
2022/09/18 16:01:29;;;;;;;;;;;;;;;;;;5047389;28;20536;-59
2022/09/18 16:03:56;;;;;;;;;;;;;;;;;;5045274;28;19905;-59
2022/09/18 16:06:22;;;;;;;;;;;;;;;;;;5045502;28;19912;-59
2022/09/18 16:08:48;;;;;;;;;;;;;;;;;;5044282;28;20372;-59
2022/09/18 16:11:14;;;;;;;;;;;;;;;;;;5047311;28;19915;-59
2022/09/18 16:13:41;;;;;;;;;;;;;;;;;;5045222;28;19913;-60
2022/09/18 16:16:07;;;;;;;;;;;;;;;;;;5046940;28;19908;-59
2022/09/18 16:18:33;;;;;;;;;;;;;;;;;;5047361;28;19905;-59
2022/09/18 16:21:00;;;;;;;;;;;;;;;;;;5047191;28;19909;-59
2022/09/18 16:23:26;;;;;;;;;;;;;;;;;;5046315;28;19908;-59
2022/09/18 16:25:52;;;;;;;;;;;;;;;;;;5047358;28;20299;-59
2022/09/18 16:28:19;;;;;;;;;;;;;;;;;;5046004;28;19905;-59
2022/09/18 16:30:46;;;;;;;;;;;;;;;;;;5047100;28;19904;-59
2022/09/18 16:33:12;;;;;;;;;;;;;;;;;;5045991;28;19909;-59
2022/09/18 16:35:39;;;;;;;;;;;;;;;;;;5045096;28;20489;-59
2022/09/18 16:38:04;;;;;;;;;;;;;;;;;;5046101;28;19908;-59